sensor_id;sensor_type;location;lat;lon;timestamp;pressure;altitude;pressure_sealevel;temperature;humidity
41234;BME280;26968;42.686;23.352;2023-07-24T00:00:31;95439.97;;;23.91;51.80
41234;BME280;26968;42.686;23.352;2023-07-24T00:02:59;95394.28;;;23.74;51.91
41234;BME280;26968;42.686;23.352;2023-07-24T00:05:24;95494.25;;;24.45;51.40
41234;BME280;26968;42.686;23.352;2023-07-24T00:07:50;95480.47;;;24.35;51.55
41234;BME280;26968;42.686;23.352;2023-07-24T00:10:15;95335.38;;;23.36;51.71
41234;BME280;26968;42.686;23.352;2023-07-24T00:12:41;95425.66;;;23.75;51.89
41234;BME280;26968;42.686;23.352;2023-07-24T00:15:06;95470.09;;;24.21;51.83
41234;BME280;26968;42.686;23.352;2023-07-24T00:17:32;95391.97;;;23.72;51.47
41234;BME280;26968;42.686;23.352;2023-07-24T00:19:58;95328.59;;;23.26;51.66
41234;BME280;26968;42.686;23.352;2023-07-24T00:22:23;95481.03;;;24.25;51.13
41234;BME280;26968;42.686;23.352;2023-07-24T00:24:48;95485.53;;;24.36;51.06
41234;BME280;26968;42.686;23.352;2023-07-24T00:27:14;95419.00;;;23.88;50.82
41234;BME280;26968;42.686;23.352;2023-07-24T00:29:39;95352.66;;;23.47;50.74
41234;BME280;26968;42.686;23.352;2023-07-24T00:32:05;95318.53;;;23.27;50.77
41234;BME280;26968;42.686;23.352;2023-07-24T00:34:31;95463.34;;;24.15;50.96
41234;BME280;26968;42.686;23.352;2023-07-24T00:36:56;95406.16;;;23.85;51.09
41234;BME280;26968;42.686;23.352;2023-07-24T00:39:22;95466.91;;;24.19;51.20
41234;BME280;26968;42.686;23.352;2023-07-24T00:41:47;95391.88;;;23.69;51.50
41234;BME280;26968;42.686;23.352;2023-07-24T00:44:13;95463.41;;;24.18;51.27
41234;BME280;26968;42.686;23.352;2023-07-24T00:46:38;95395.81;;;23.56;51.65
41234;BME280;26968;42.686;23.352;2023-07-24T00:49:04;95445.31;;;23.88;51.72
41234;BME280;26968;42.686;23.352;2023-07-24T00:51:30;95481.09;;;24.12;51.98
41234;BME280;26968;42.686;23.352;2023-07-24T00:53:56;95467.06;;;23.91;52.13
41234;BME280;26968;42.686;23.352;2023-07-24T00:56:23;95373.06;;;23.13;52.63
41234;BME280;26968;42.686;23.352;2023-07-24T00:58:48;95426.22;;;23.49;52.65
41234;BME280;26968;42.686;23.352;2023-07-24T01:01:14;95332.56;;;22.85;52.63
41234;BME280;26968;42.686;23.352;2023-07-24T01:03:41;95428.34;;;23.43;52.85
41234;BME280;26968;42.686;23.352;2023-07-24T01:06:09;95461.66;;;23.75;52.68
41234;BME280;26968;42.686;23.352;2023-07-24T01:08:34;95469.31;;;23.73;52.96
41234;BME280;26968;42.686;23.352;2023-07-24T01:11:04;95435.81;;;23.62;52.83
41234;BME280;26968;42.686;23.352;2023-07-24T01:13:36;95467.84;;;23.76;52.84
41234;BME280;26968;42.686;23.352;2023-07-24T01:16:18;95443.34;;;23.25;53.79
41234;BME280;26968;42.686;23.352;2023-07-24T01:18:44;95429.66;;;23.18;54.02
41234;BME280;26968;42.686;23.352;2023-07-24T01:21:11;95444.34;;;23.05;54.62
41234;BME280;26968;42.686;23.352;2023-07-24T01:26:17;95469.03;;;23.47;54.47
41234;BME280;26968;42.686;23.352;2023-07-24T01:28:43;95338.72;;;22.70;54.28
41234;BME280;26968;42.686;23.352;2023-07-24T01:31:08;95409.75;;;23.11;54.33
41234;BME280;26968;42.686;23.352;2023-07-24T01:33:34;95413.22;;;22.95;54.76
41234;BME280;26968;42.686;23.352;2023-07-24T01:36:01;95456.34;;;23.20;54.69
41234;BME280;26968;42.686;23.352;2023-07-24T01:38:28;95427.75;;;22.91;54.84
41234;BME280;26968;42.686;23.352;2023-07-24T01:40:56;95440.63;;;23.09;54.81
41234;BME280;26968;42.686;23.352;2023-07-24T01:43:25;95325.19;;;22.26;54.68
41234;BME280;26968;42.686;23.352;2023-07-24T01:45:52;95406.53;;;22.77;54.53
41234;BME280;26968;42.686;23.352;2023-07-24T01:48:18;95446.69;;;22.91;53.74
41234;BME280;26968;42.686;23.352;2023-07-24T01:50:44;95499.81;;;23.11;53.69
41234;BME280;26968;42.686;23.352;2023-07-24T01:53:09;95361.19;;;22.30;53.73
41234;BME280;26968;42.686;23.352;2023-07-24T01:55:35;95389.28;;;22.69;53.31
41234;BME280;26968;42.686;23.352;2023-07-24T01:58:00;95428.09;;;22.89;53.63
41234;BME280;26968;42.686;23.352;2023-07-24T02:00:26;95396.72;;;22.73;53.81
41234;BME280;26968;42.686;23.352;2023-07-24T02:02:51;95467.38;;;22.99;54.06
41234;BME280;26968;42.686;23.352;2023-07-24T02:05:17;95482.97;;;23.18;53.77
41234;BME280;26968;42.686;23.352;2023-07-24T02:07:42;95481.13;;;23.22;53.57
41234;BME280;26968;42.686;23.352;2023-07-24T02:10:08;95459.91;;;23.08;53.65
41234;BME280;26968;42.686;23.352;2023-07-24T02:12:34;95391.28;;;22.57;53.85
41234;BME280;26968;42.686;23.352;2023-07-24T02:14:59;95374.25;;;22.28;54.40
41234;BME280;26968;42.686;23.352;2023-07-24T02:17:25;95422.81;;;22.53;54.32
41234;BME280;26968;42.686;23.352;2023-07-24T02:19:50;95406.94;;;22.51;54.36
41234;BME280;26968;42.686;23.352;2023-07-24T02:22:16;95440.28;;;22.83;54.17
41234;BME280;26968;42.686;23.352;2023-07-24T02:24:42;95445.56;;;22.92;53.95
41234;BME280;26968;42.686;23.352;2023-07-24T02:27:07;95452.72;;;23.00;53.78
41234;BME280;26968;42.686;23.352;2023-07-24T02:29:33;95458.78;;;23.09;53.67
41234;BME280;26968;42.686;23.352;2023-07-24T02:31:59;95461.28;;;23.02;54.19
41234;BME280;26968;42.686;23.352;2023-07-24T02:34:24;95460.69;;;23.08;53.95
41234;BME280;26968;42.686;23.352;2023-07-24T02:36:52;95440.25;;;22.95;54.07
41234;BME280;26968;42.686;23.352;2023-07-24T02:39:18;95428.28;;;22.68;53.83
41234;BME280;26968;42.686;23.352;2023-07-24T02:41:43;95387.88;;;22.60;53.61
41234;BME280;26968;42.686;23.352;2023-07-24T02:44:09;95450.13;;;23.03;53.19
41234;BME280;26968;42.686;23.352;2023-07-24T02:46:34;95446.94;;;22.86;53.30
41234;BME280;26968;42.686;23.352;2023-07-24T02:49:00;95420.44;;;22.51;53.23
41234;BME280;26968;42.686;23.352;2023-07-24T02:51:25;95450.78;;;22.73;53.72
41234;BME280;26968;42.686;23.352;2023-07-24T02:53:55;95426.00;;;22.70;53.59
41234;BME280;26968;42.686;23.352;2023-07-24T02:56:20;95437.31;;;22.60;54.22
41234;BME280;26968;42.686;23.352;2023-07-24T02:58:46;95457.91;;;22.77;54.36
41234;BME280;26968;42.686;23.352;2023-07-24T03:01:12;95409.28;;;22.53;54.33
41234;BME280;26968;42.686;23.352;2023-07-24T03:03:40;95353.09;;;22.30;53.96
41234;BME280;26968;42.686;23.352;2023-07-24T03:06:06;95436.00;;;22.82;54.04
41234;BME280;26968;42.686;23.352;2023-07-24T03:08:31;95415.47;;;22.65;53.83
41234;BME280;26968;42.686;23.352;2023-07-24T03:10:57;95443.53;;;22.89;53.80
41234;BME280;26968;42.686;23.352;2023-07-24T03:13:23;95453.25;;;23.05;53.56
41234;BME280;26968;42.686;23.352;2023-07-24T03:15:56;95430.38;;;22.87;53.68
41234;BME280;26968;42.686;23.352;2023-07-24T03:18:22;95458.81;;;22.97;53.97
41234;BME280;26968;42.686;23.352;2023-07-24T03:20:47;95405.59;;;22.45;53.73
41234;BME280;26968;42.686;23.352;2023-07-24T03:23:13;95408.75;;;22.47;53.42
41234;BME280;26968;42.686;23.352;2023-07-24T03:25:38;95423.44;;;22.62;53.43
41234;BME280;26968;42.686;23.352;2023-07-24T03:28:04;95440.00;;;22.60;53.57
41234;BME280;26968;42.686;23.352;2023-07-24T03:30:29;95415.94;;;22.55;53.62
41234;BME280;26968;42.686;23.352;2023-07-24T03:32:57;95433.94;;;22.63;54.31
41234;BME280;26968;42.686;23.352;2023-07-24T03:35:22;95473.38;;;22.92;54.32
41234;BME280;26968;42.686;23.352;2023-07-24T03:37:48;95437.31;;;22.60;55.04
41234;BME280;26968;42.686;23.352;2023-07-24T03:40:13;95407.22;;;22.34;55.00
41234;BME280;26968;42.686;23.352;2023-07-24T03:42:39;95431.91;;;22.60;54.78
41234;BME280;26968;42.686;23.352;2023-07-24T03:45:05;95469.09;;;22.91;54.76
41234;BME280;26968;42.686;23.352;2023-07-24T03:47:31;95450.34;;;22.70;55.18
41234;BME280;26968;42.686;23.352;2023-07-24T03:49:56;95432.34;;;22.62;55.32
41234;BME280;26968;42.686;23.352;2023-07-24T03:52:21;95477.34;;;22.83;55.35
41234;BME280;26968;42.686;23.352;2023-07-24T03:54:47;95476.56;;;22.82;55.28
41234;BME280;26968;42.686;23.352;2023-07-24T03:57:12;95457.03;;;22.61;54.86
41234;BME280;26968;42.686;23.352;2023-07-24T03:59:38;95380.63;;;22.08;54.84
41234;BME280;26968;42.686;23.352;2023-07-24T04:02:04;95463.59;;;22.48;55.33
41234;BME280;26968;42.686;23.352;2023-07-24T04:04:29;95480.75;;;22.67;54.96
41234;BME280;26968;42.686;23.352;2023-07-24T04:06:55;95474.13;;;22.77;54.64
41234;BME280;26968;42.686;23.352;2023-07-24T04:09:20;95429.66;;;22.22;55.21
41234;BME280;26968;42.686;23.352;2023-07-24T04:11:46;95469.66;;;22.57;55.17
41234;BME280;26968;42.686;23.352;2023-07-24T04:14:11;95479.75;;;22.72;55.04
41234;BME280;26968;42.686;23.352;2023-07-24T04:16:37;95482.38;;;22.56;55.58
41234;BME280;26968;42.686;23.352;2023-07-24T04:19:03;95465.38;;;22.44;56.00
41234;BME280;26968;42.686;23.352;2023-07-24T04:21:28;95460.91;;;22.48;55.83
41234;BME280;26968;42.686;23.352;2023-07-24T04:23:54;95446.06;;;22.42;56.07
41234;BME280;26968;42.686;23.352;2023-07-24T04:26:20;95467.69;;;22.69;56.25
41234;BME280;26968;42.686;23.352;2023-07-24T04:28:46;95490.88;;;22.83;55.92
41234;BME280;26968;42.686;23.352;2023-07-24T04:31:11;95381.28;;;22.05;54.94
41234;BME280;26968;42.686;23.352;2023-07-24T04:33:38;95409.53;;;22.20;54.43
41234;BME280;26968;42.686;23.352;2023-07-24T04:36:04;95427.03;;;22.38;53.94
41234;BME280;26968;42.686;23.352;2023-07-24T04:38:29;95423.88;;;22.36;54.29
41234;BME280;26968;42.686;23.352;2023-07-24T04:40:54;95487.16;;;22.87;53.91
41234;BME280;26968;42.686;23.352;2023-07-24T04:43:20;95490.09;;;22.82;53.48
41234;BME280;26968;42.686;23.352;2023-07-24T04:45:45;95494.91;;;22.89;53.11
41234;BME280;26968;42.686;23.352;2023-07-24T04:48:11;95484.44;;;22.87;53.44
41234;BME280;26968;42.686;23.352;2023-07-24T04:50:36;95492.84;;;22.98;52.78
41234;BME280;26968;42.686;23.352;2023-07-24T04:53:02;95455.88;;;22.74;52.85
41234;BME280;26968;42.686;23.352;2023-07-24T04:55:27;95488.88;;;23.07;52.98
41234;BME280;26968;42.686;23.352;2023-07-24T04:57:53;95444.13;;;22.82;53.64
41234;BME280;26968;42.686;23.352;2023-07-24T05:00:19;95411.97;;;22.65;53.40
41234;BME280;26968;42.686;23.352;2023-07-24T05:02:44;95429.59;;;22.87;53.30
41234;BME280;26968;42.686;23.352;2023-07-24T05:05:09;95438.81;;;22.86;53.53
41234;BME280;26968;42.686;23.352;2023-07-24T05:07:36;95476.22;;;23.12;53.96
41234;BME280;26968;42.686;23.352;2023-07-24T05:10:01;95471.34;;;22.89;54.11
41234;BME280;26968;42.686;23.352;2023-07-24T05:12:27;95454.19;;;22.97;53.68
41234;BME280;26968;42.686;23.352;2023-07-24T05:14:52;95493.63;;;23.26;54.19
41234;BME280;26968;42.686;23.352;2023-07-24T05:17:18;95461.56;;;23.13;54.15
41234;BME280;26968;42.686;23.352;2023-07-24T05:19:43;95395.50;;;22.70;54.41
41234;BME280;26968;42.686;23.352;2023-07-24T05:22:09;95492.78;;;23.38;54.09
41234;BME280;26968;42.686;23.352;2023-07-24T05:24:36;95428.84;;;23.02;54.15
41234;BME280;26968;42.686;23.352;2023-07-24T05:27:02;95490.75;;;23.35;54.42
41234;BME280;26968;42.686;23.352;2023-07-24T05:29:28;95487.03;;;23.39;54.55
41234;BME280;26968;42.686;23.352;2023-07-24T05:31:53;95500.41;;;23.48;54.30
41234;BME280;26968;42.686;23.352;2023-07-24T05:34:19;95476.97;;;23.40;54.27
41234;BME280;26968;42.686;23.352;2023-07-24T05:36:44;95347.09;;;22.65;53.53
41234;BME280;26968;42.686;23.352;2023-07-24T05:39:09;95449.56;;;23.41;53.63
41234;BME280;26968;42.686;23.352;2023-07-24T05:41:35;95475.72;;;23.50;53.51
41234;BME280;26968;42.686;23.352;2023-07-24T05:44:01;95450.78;;;23.44;53.37
41234;BME280;26968;42.686;23.352;2023-07-24T05:46:26;95478.94;;;23.71;52.90
41234;BME280;26968;42.686;23.352;2023-07-24T05:48:52;95335.97;;;22.82;52.16
41234;BME280;26968;42.686;23.352;2023-07-24T05:51:17;95355.88;;;23.05;51.46
41234;BME280;26968;42.686;23.352;2023-07-24T05:53:43;95453.97;;;23.77;51.23
41234;BME280;26968;42.686;23.352;2023-07-24T05:56:08;95455.53;;;23.78;51.58
41234;BME280;26968;42.686;23.352;2023-07-24T05:58:34;95473.59;;;23.90;51.43
41234;BME280;26968;42.686;23.352;2023-07-24T06:01:00;95445.56;;;23.67;51.11
41234;BME280;26968;42.686;23.352;2023-07-24T06:03:26;95358.53;;;23.33;50.70
41234;BME280;26968;42.686;23.352;2023-07-24T06:05:52;95471.00;;;23.94;51.21
41234;BME280;26968;42.686;23.352;2023-07-24T06:08:18;95459.09;;;23.98;51.78
41234;BME280;26968;42.686;23.352;2023-07-24T06:10:46;95457.28;;;23.87;52.57
41234;BME280;26968;42.686;23.352;2023-07-24T06:13:12;95391.19;;;23.56;51.58
41234;BME280;26968;42.686;23.352;2023-07-24T06:15:37;95364.25;;;23.47;50.99
41234;BME280;26968;42.686;23.352;2023-07-24T06:18:03;95466.50;;;24.17;50.85
41234;BME280;26968;42.686;23.352;2023-07-24T06:20:28;95393.31;;;23.82;50.17
41234;BME280;26968;42.686;23.352;2023-07-24T06:22:54;95384.69;;;23.76;50.45
41234;BME280;26968;42.686;23.352;2023-07-24T06:25:19;95387.66;;;23.87;50.64
41234;BME280;26968;42.686;23.352;2023-07-24T06:27:46;95389.63;;;23.90;50.92
41234;BME280;26968;42.686;23.352;2023-07-24T06:30:11;95390.50;;;23.94;51.06
41234;BME280;26968;42.686;23.352;2023-07-24T06:32:37;95425.53;;;24.03;50.55
41234;BME280;26968;42.686;23.352;2023-07-24T06:35:02;95463.69;;;24.29;50.66
41234;BME280;26968;42.686;23.352;2023-07-24T06:37:28;95430.66;;;24.23;50.14
41234;BME280;26968;42.686;23.352;2023-07-24T06:39:53;95350.72;;;23.79;50.45
41234;BME280;26968;42.686;23.352;2023-07-24T06:42:18;95430.22;;;24.21;50.00
41234;BME280;26968;42.686;23.352;2023-07-24T06:44:44;95435.50;;;24.34;50.79
41234;BME280;26968;42.686;23.352;2023-07-24T06:47:09;95376.19;;;23.94;49.39
41234;BME280;26968;42.686;23.352;2023-07-24T06:49:35;95453.81;;;24.56;49.19
41234;BME280;26968;42.686;23.352;2023-07-24T06:52:02;95405.50;;;24.23;49.33
41234;BME280;26968;42.686;23.352;2023-07-24T06:54:27;95428.06;;;24.46;49.07
41234;BME280;26968;42.686;23.352;2023-07-24T06:56:53;95430.19;;;24.56;49.01
41234;BME280;26968;42.686;23.352;2023-07-24T06:59:18;95438.25;;;24.72;48.80
41234;BME280;26968;42.686;23.352;2023-07-24T07:01:44;95410.06;;;24.57;48.75
41234;BME280;26968;42.686;23.352;2023-07-24T07:04:09;95414.78;;;24.60;48.59
41234;BME280;26968;42.686;23.352;2023-07-24T07:06:35;95432.34;;;24.67;49.20
41234;BME280;26968;42.686;23.352;2023-07-24T07:09:00;95419.97;;;24.50;48.78
41234;BME280;26968;42.686;23.352;2023-07-24T07:11:26;95468.81;;;24.69;48.81
41234;BME280;26968;42.686;23.352;2023-07-24T07:13:51;95452.47;;;24.46;49.34
41234;BME280;26968;42.686;23.352;2023-07-24T07:16:17;95448.66;;;24.51;49.67
41234;BME280;26968;42.686;23.352;2023-07-24T07:18:44;95453.91;;;24.79;49.36
41234;BME280;26968;42.686;23.352;2023-07-24T07:21:10;95382.63;;;24.40;49.06
41234;BME280;26968;42.686;23.352;2023-07-24T07:23:36;95437.94;;;24.93;48.80
41234;BME280;26968;42.686;23.352;2023-07-24T07:26:01;95376.81;;;24.41;48.45
41234;BME280;26968;42.686;23.352;2023-07-24T07:28:27;95374.69;;;24.50;48.39
41234;BME280;26968;42.686;23.352;2023-07-24T07:30:53;95422.06;;;24.95;48.04
41234;BME280;26968;42.686;23.352;2023-07-24T07:33:19;95412.22;;;24.87;48.62
41234;BME280;26968;42.686;23.352;2023-07-24T07:35:47;95408.44;;;24.91;48.35
41234;BME280;26968;42.686;23.352;2023-07-24T07:38:13;95398.38;;;24.92;48.24
41234;BME280;26968;42.686;23.352;2023-07-24T07:40:38;95378.25;;;24.93;48.21
41234;BME280;26968;42.686;23.352;2023-07-24T07:43:06;95418.41;;;25.07;48.25
41234;BME280;26968;42.686;23.352;2023-07-24T07:45:32;95429.72;;;25.09;48.06
41234;BME280;26968;42.686;23.352;2023-07-24T07:47:57;95419.13;;;25.04;48.35
41234;BME280;26968;42.686;23.352;2023-07-24T07:50:23;95422.28;;;25.06;47.66
41234;BME280;26968;42.686;23.352;2023-07-24T07:52:51;95403.22;;;25.02;48.11
41234;BME280;26968;42.686;23.352;2023-07-24T07:55:20;95410.59;;;25.02;47.95
41234;BME280;26968;42.686;23.352;2023-07-24T07:57:46;95423.09;;;25.29;47.67
41234;BME280;26968;42.686;23.352;2023-07-24T08:00:11;95352.03;;;25.01;47.59
41234;BME280;26968;42.686;23.352;2023-07-24T08:02:37;95350.63;;;25.10;46.81
41234;BME280;26968;42.686;23.352;2023-07-24T08:05:10;95412.44;;;25.62;46.43
41234;BME280;26968;42.686;23.352;2023-07-24T08:07:36;95409.44;;;25.48;46.90
41234;BME280;26968;42.686;23.352;2023-07-24T08:10:02;95435.19;;;25.77;46.32
41234;BME280;26968;42.686;23.352;2023-07-24T08:12:28;95415.41;;;25.80;45.80
41234;BME280;26968;42.686;23.352;2023-07-24T08:14:53;95393.47;;;25.66;45.71
41234;BME280;26968;42.686;23.352;2023-07-24T08:17:19;95339.59;;;25.45;46.11
41234;BME280;26968;42.686;23.352;2023-07-24T08:19:45;95428.06;;;26.22;45.66
41234;BME280;26968;42.686;23.352;2023-07-24T08:22:10;95328.97;;;25.59;45.18
41234;BME280;26968;42.686;23.352;2023-07-24T08:24:36;95409.84;;;26.22;44.93
41234;BME280;26968;42.686;23.352;2023-07-24T08:27:02;95412.00;;;26.36;44.63
41234;BME280;26968;42.686;23.352;2023-07-24T08:29:28;95351.34;;;26.05;43.98
41234;BME280;26968;42.686;23.352;2023-07-24T08:31:53;95387.25;;;26.44;43.55
41234;BME280;26968;42.686;23.352;2023-07-24T08:34:19;95370.56;;;26.46;43.55
41234;BME280;26968;42.686;23.352;2023-07-24T08:36:45;95398.81;;;26.71;43.59
41234;BME280;26968;42.686;23.352;2023-07-24T08:39:10;95370.66;;;26.57;43.74
41234;BME280;26968;42.686;23.352;2023-07-24T08:41:39;95399.47;;;26.91;43.72
41234;BME280;26968;42.686;23.352;2023-07-24T08:44:08;95399.13;;;26.96;43.73
41234;BME280;26968;42.686;23.352;2023-07-24T08:46:36;95340.09;;;26.67;43.97
41234;BME280;26968;42.686;23.352;2023-07-24T08:49:03;95362.56;;;26.94;44.54
41234;BME280;26968;42.686;23.352;2023-07-24T08:51:29;95388.38;;;27.07;42.56
41234;BME280;26968;42.686;23.352;2023-07-24T08:53:56;95330.03;;;26.71;41.38
41234;BME280;26968;42.686;23.352;2023-07-24T08:56:22;95382.94;;;27.07;41.57
41234;BME280;26968;42.686;23.352;2023-07-24T08:58:48;95379.41;;;27.06;41.51
41234;BME280;26968;42.686;23.352;2023-07-24T09:01:14;95316.53;;;26.81;41.56
41234;BME280;26968;42.686;23.352;2023-07-24T09:03:39;95341.97;;;26.96;41.55
41234;BME280;26968;42.686;23.352;2023-07-24T09:06:05;95355.91;;;27.28;41.10
41234;BME280;26968;42.686;23.352;2023-07-24T09:08:34;95333.94;;;27.10;41.23
41234;BME280;26968;42.686;23.352;2023-07-24T09:11:01;95341.94;;;27.33;41.23
41234;BME280;26968;42.686;23.352;2023-07-24T09:13:27;95385.00;;;27.64;40.74
41234;BME280;26968;42.686;23.352;2023-07-24T09:15:53;95369.78;;;27.56;41.41
41234;BME280;26968;42.686;23.352;2023-07-24T09:18:19;95291.59;;;27.13;40.33
41234;BME280;26968;42.686;23.352;2023-07-24T09:20:45;95310.84;;;27.38;40.45
41234;BME280;26968;42.686;23.352;2023-07-24T09:23:12;95321.81;;;27.48;40.58
41234;BME280;26968;42.686;23.352;2023-07-24T09:25:39;95358.59;;;27.72;39.91
41234;BME280;26968;42.686;23.352;2023-07-24T09:28:24;95350.47;;;27.79;39.89
41234;BME280;26968;42.686;23.352;2023-07-24T09:30:56;95343.91;;;27.84;39.85
41234;BME280;26968;42.686;23.352;2023-07-24T09:33:33;95310.66;;;27.64;39.23
41234;BME280;26968;42.686;23.352;2023-07-24T09:36:00;95345.59;;;28.06;39.23
41234;BME280;26968;42.686;23.352;2023-07-24T09:38:26;95313.22;;;27.97;39.51
41234;BME280;26968;42.686;23.352;2023-07-24T09:40:52;95345.34;;;28.29;39.20
41234;BME280;26968;42.686;23.352;2023-07-24T09:43:26;95339.91;;;28.36;39.00
41234;BME280;26968;42.686;23.352;2023-07-24T09:45:53;95232.94;;;27.84;39.26
41234;BME280;26968;42.686;23.352;2023-07-24T09:48:22;95320.03;;;28.39;39.09
41234;BME280;26968;42.686;23.352;2023-07-24T09:50:51;95326.38;;;28.61;39.09
41234;BME280;26968;42.686;23.352;2023-07-24T09:56:06;95315.22;;;29.58;37.16
41234;BME280;26968;42.686;23.352;2023-07-24T09:58:34;95315.44;;;30.38;35.08
41234;BME280;26968;42.686;23.352;2023-07-24T10:01:02;95301.28;;;31.27;33.97
41234;BME280;26968;42.686;23.352;2023-07-24T10:03:29;95246.28;;;31.48;32.19
41234;BME280;26968;42.686;23.352;2023-07-24T10:05:55;95302.47;;;32.79;31.04
41234;BME280;26968;42.686;23.352;2023-07-24T10:08:21;95312.97;;;33.11;30.08
41234;BME280;26968;42.686;23.352;2023-07-24T10:10:46;95294.16;;;33.83;30.08
41234;BME280;26968;42.686;23.352;2023-07-24T10:13:13;95244.09;;;34.12;29.40
41234;BME280;26968;42.686;23.352;2023-07-24T10:15:43;95260.50;;;34.74;27.43
41234;BME280;26968;42.686;23.352;2023-07-24T10:18:09;95292.13;;;35.38;25.45
41234;BME280;26968;42.686;23.352;2023-07-24T10:20:42;95248.66;;;35.10;25.11
41234;BME280;26968;42.686;23.352;2023-07-24T10:23:11;95274.34;;;35.55;25.15
41234;BME280;26968;42.686;23.352;2023-07-24T10:25:41;95195.84;;;34.63;26.18
41234;BME280;26968;42.686;23.352;2023-07-24T10:28:10;95192.69;;;34.80;26.37
41234;BME280;26968;42.686;23.352;2023-07-24T10:30:38;95266.66;;;35.79;26.16
41234;BME280;26968;42.686;23.352;2023-07-24T10:33:12;95248.28;;;35.89;25.26
41234;BME280;26968;42.686;23.352;2023-07-24T10:35:44;95266.81;;;36.17;25.39
41234;BME280;26968;42.686;23.352;2023-07-24T10:38:10;95279.31;;;36.51;24.97
41234;BME280;26968;42.686;23.352;2023-07-24T10:40:35;95169.84;;;36.03;25.49
41234;BME280;26968;42.686;23.352;2023-07-24T10:48:10;95266.41;;;36.60;25.21
41234;BME280;26968;42.686;23.352;2023-07-24T10:50:40;95227.03;;;36.56;25.37
41234;BME280;26968;42.686;23.352;2023-07-24T10:53:07;95146.56;;;36.16;25.19
41234;BME280;26968;42.686;23.352;2023-07-24T10:55:33;95253.31;;;36.35;25.50
41234;BME280;26968;42.686;23.352;2023-07-24T10:57:58;95218.69;;;35.60;26.30
41234;BME280;26968;42.686;23.352;2023-07-24T11:00:24;95240.63;;;35.80;26.58
41234;BME280;26968;42.686;23.352;2023-07-24T11:02:49;95223.84;;;35.75;26.88
41234;BME280;26968;42.686;23.352;2023-07-24T11:05:17;95235.13;;;35.64;28.10
41234;BME280;26968;42.686;23.352;2023-07-24T11:07:42;95227.78;;;35.29;26.52
41234;BME280;26968;42.686;23.352;2023-07-24T11:10:18;95240.34;;;35.46;26.57
41234;BME280;26968;42.686;23.352;2023-07-24T11:12:44;95166.09;;;35.22;24.60
41234;BME280;26968;42.686;23.352;2023-07-24T11:15:11;95229.59;;;35.64;24.71
41234;BME280;26968;42.686;23.352;2023-07-24T11:17:38;95215.25;;;35.40;24.91
41234;BME280;26968;42.686;23.352;2023-07-24T11:20:15;95223.78;;;35.46;24.92
41234;BME280;26968;42.686;23.352;2023-07-24T11:22:42;95167.66;;;34.39;25.92
41234;BME280;26968;42.686;23.352;2023-07-24T11:25:09;95217.56;;;34.77;26.89
41234;BME280;26968;42.686;23.352;2023-07-24T11:27:42;95215.06;;;34.82;28.42
41234;BME280;26968;42.686;23.352;2023-07-24T11:30:12;95183.75;;;34.76;29.13
41234;BME280;26968;42.686;23.352;2023-07-24T11:32:44;95215.34;;;35.20;26.55
41234;BME280;26968;42.686;23.352;2023-07-24T11:35:10;95158.91;;;34.60;25.05
41234;BME280;26968;42.686;23.352;2023-07-24T11:37:36;95164.19;;;35.03;24.89
41234;BME280;26968;42.686;23.352;2023-07-24T11:40:03;95164.38;;;35.29;25.68
41234;BME280;26968;42.686;23.352;2023-07-24T11:42:43;95181.97;;;35.92;24.65
41234;BME280;26968;42.686;23.352;2023-07-24T11:45:08;95119.50;;;35.98;24.21
41234;BME280;26968;42.686;23.352;2023-07-24T11:47:48;95195.22;;;36.52;25.04
41234;BME280;26968;42.686;23.352;2023-07-24T11:50:14;95162.75;;;36.30;24.92
41234;BME280;26968;42.686;23.352;2023-07-24T11:52:45;95187.69;;;36.40;24.71
41234;BME280;26968;42.686;23.352;2023-07-24T11:55:15;95183.28;;;36.29;25.29
41234;BME280;26968;42.686;23.352;2023-07-24T11:57:41;95137.19;;;36.14;25.12
41234;BME280;26968;42.686;23.352;2023-07-24T12:00:20;95191.06;;;36.06;25.94
41234;BME280;26968;42.686;23.352;2023-07-24T12:02:45;94996.28;;;34.96;26.06
41234;BME280;26968;42.686;23.352;2023-07-24T12:05:11;95178.84;;;36.19;25.91
41234;BME280;26968;42.686;23.352;2023-07-24T12:07:36;95080.56;;;35.68;25.75
41234;BME280;26968;42.686;23.352;2023-07-24T12:10:05;95153.91;;;36.48;25.62
41234;BME280;26968;42.686;23.352;2023-07-24T12:12:44;95172.50;;;36.73;25.68
41234;BME280;26968;42.686;23.352;2023-07-24T12:15:10;95173.72;;;36.85;25.30
41234;BME280;26968;42.686;23.352;2023-07-24T12:17:36;95158.00;;;36.82;25.36
41234;BME280;26968;42.686;23.352;2023-07-24T12:20:03;95147.50;;;36.39;25.95
41234;BME280;26968;42.686;23.352;2023-07-24T12:22:31;95176.13;;;36.57;25.99
41234;BME280;26968;42.686;23.352;2023-07-24T12:24:56;95140.94;;;36.07;25.44
41234;BME280;26968;42.686;23.352;2023-07-24T12:27:22;95114.72;;;35.86;25.75
41234;BME280;26968;42.686;23.352;2023-07-24T12:29:47;95123.13;;;35.95;25.32
41234;BME280;26968;42.686;23.352;2023-07-24T12:32:12;95116.38;;;35.84;25.64
41234;BME280;26968;42.686;23.352;2023-07-24T12:34:38;95149.03;;;36.40;25.16
41234;BME280;26968;42.686;23.352;2023-07-24T12:37:04;95140.97;;;36.32;24.66
41234;BME280;26968;42.686;23.352;2023-07-24T12:39:29;95105.31;;;35.71;24.81
41234;BME280;26968;42.686;23.352;2023-07-24T12:41:54;95134.38;;;35.88;25.01
41234;BME280;26968;42.686;23.352;2023-07-24T12:44:20;95127.06;;;36.23;25.18
41234;BME280;26968;42.686;23.352;2023-07-24T12:46:45;95121.09;;;36.50;24.16
41234;BME280;26968;42.686;23.352;2023-07-24T12:49:11;95099.22;;;36.56;24.10
41234;BME280;26968;42.686;23.352;2023-07-24T12:51:37;95078.88;;;36.12;24.91
41234;BME280;26968;42.686;23.352;2023-07-24T12:54:02;95087.38;;;35.92;24.93
41234;BME280;26968;42.686;23.352;2023-07-24T12:56:27;95057.75;;;35.38;26.04